createdAt,value
2017-12-19T00:02:49.297Z,3.90
2017-12-19T00:05:50.628Z,4.00
2017-12-19T00:08:52.641Z,4.10
2017-12-19T00:11:53.953Z,4.10
2017-12-19T00:14:55.999Z,4.10
2017-12-19T00:17:57.376Z,4.00
2017-12-19T00:20:58.720Z,4.10
2017-12-19T00:24:00.761Z,4.00
2017-12-19T00:27:02.136Z,4.00
2017-12-19T00:30:04.248Z,4.10
2017-12-19T00:33:05.549Z,4.10
2017-12-19T00:36:07.575Z,4.10
2017-12-19T00:39:08.849Z,4.10
2017-12-19T00:42:10.133Z,4.10
2017-12-19T00:45:11.421Z,4.10
2017-12-19T00:48:12.702Z,4.10
2017-12-19T00:51:14.772Z,4.00
2017-12-19T00:54:16.755Z,4.00
2017-12-19T00:57:18.061Z,4.00
2017-12-19T01:00:19.306Z,4.00
2017-12-19T01:03:20.589Z,4.00
2017-12-19T01:06:22.620Z,4.00
2017-12-19T01:09:24.613Z,4.00
2017-12-19T01:12:26.630Z,4.00
2017-12-19T01:15:27.969Z,4.00
2017-12-19T01:18:29.238Z,4.00
2017-12-19T01:21:31.260Z,4.00
2017-12-19T01:24:32.502Z,4.10
2017-12-19T01:27:34.544Z,4.00
2017-12-19T01:30:35.792Z,4.00
2017-12-19T01:33:37.060Z,4.00
2017-12-19T01:36:39.068Z,4.00
2017-12-19T01:39:40.344Z,4.00
2017-12-19T01:42:41.645Z,4.10
2017-12-19T01:45:43.182Z,4.00
2017-12-19T01:48:45.224Z,4.10
2017-12-19T01:51:46.494Z,4.10
2017-12-19T01:54:48.488Z,4.10
2017-12-19T01:57:49.772Z,4.10
2017-12-19T02:00:51.032Z,4.10
2017-12-19T02:03:52.340Z,4.00
2017-12-19T02:06:53.584Z,4.00
2017-12-19T02:09:54.844Z,4.10
2017-12-19T02:12:56.097Z,4.10
2017-12-19T02:15:57.381Z,4.00
2017-12-19T02:18:58.635Z,4.00
2017-12-19T02:22:00.709Z,4.00
2017-12-19T02:25:02.724Z,4.10
2017-12-19T02:28:04.057Z,4.00
2017-12-19T02:31:05.359Z,4.10
2017-12-19T02:34:06.676Z,4.10
2017-12-19T02:37:07.992Z,4.10
2017-12-19T02:40:09.260Z,4.10
2017-12-19T02:43:17.792Z,4.10
2017-12-19T02:46:19.056Z,4.10
2017-12-19T02:49:20.380Z,4.10
2017-12-19T02:52:21.691Z,4.10
2017-12-19T02:55:23.698Z,4.10
2017-12-19T02:58:25.061Z,4.10
2017-12-19T03:01:26.312Z,4.20
2017-12-19T03:04:27.632Z,4.20
2017-12-19T03:07:28.901Z,4.20
2017-12-19T03:10:30.201Z,4.20
2017-12-19T03:13:32.233Z,4.10
2017-12-19T03:16:34.333Z,4.10
2017-12-19T03:19:36.358Z,4.10
2017-12-19T03:22:37.767Z,4.00
2017-12-19T03:25:39.062Z,4.00
2017-12-19T03:28:40.382Z,4.00
2017-12-19T03:31:41.664Z,4.00
2017-12-19T03:34:42.960Z,3.90
2017-12-19T03:37:44.252Z,4.00
2017-12-19T03:40:45.546Z,4.00
2017-12-19T03:43:47.552Z,4.00
2017-12-19T03:46:48.833Z,4.00
2017-12-19T03:49:50.151Z,4.00
2017-12-19T03:52:51.418Z,4.00
2017-12-19T03:55:52.702Z,3.90
2017-12-19T03:58:54.029Z,3.90
2017-12-19T04:01:55.327Z,3.90
2017-12-19T04:04:56.640Z,4.00
2017-12-19T04:07:58.638Z,4.00
2017-12-19T04:10:59.960Z,4.00
2017-12-19T04:14:01.980Z,4.10
2017-12-19T04:17:03.284Z,4.10
2017-12-19T04:20:05.321Z,4.00
2017-12-19T04:23:06.588Z,4.00
2017-12-19T04:26:08.622Z,4.00
2017-12-19T04:29:09.970Z,4.00
2017-12-19T04:32:11.230Z,4.10
2017-12-19T04:35:12.534Z,4.10
2017-12-19T04:38:13.780Z,4.00
2017-12-19T04:41:15.094Z,4.00
2017-12-19T04:44:17.123Z,4.10
2017-12-19T04:47:18.408Z,4.10
2017-12-19T04:50:20.465Z,4.00
2017-12-19T04:53:21.772Z,4.00
2017-12-19T04:56:23.053Z,4.00
2017-12-19T04:59:24.333Z,4.10
2017-12-19T05:02:25.637Z,4.00
2017-12-19T05:05:26.948Z,4.00
2017-12-19T05:08:28.272Z,4.00
2017-12-19T05:11:30.327Z,4.00
2017-12-19T05:14:31.665Z,4.00
2017-12-19T05:17:32.949Z,4.00
2017-12-19T05:20:34.973Z,4.10
2017-12-19T05:23:36.246Z,4.00
2017-12-19T05:26:37.519Z,4.00
2017-12-19T05:29:38.842Z,4.10
2017-12-19T05:32:40.097Z,4.10
2017-12-19T05:35:42.130Z,4.10
2017-12-19T05:38:43.408Z,4.10
2017-12-19T05:41:45.473Z,4.10
2017-12-19T05:44:46.780Z,4.00
2017-12-19T05:47:48.022Z,4.10
2017-12-19T05:50:49.306Z,4.10
2017-12-19T05:53:50.559Z,4.10
2017-12-19T05:56:51.839Z,4.20
2017-12-19T05:59:53.089Z,4.10
2017-12-19T06:02:54.393Z,4.10
2017-12-19T06:05:55.695Z,4.10
2017-12-19T06:08:56.952Z,4.10
2017-12-19T06:11:58.279Z,4.10
2017-12-19T06:14:59.559Z,4.10
2017-12-19T06:18:00.814Z,4.20
2017-12-19T06:21:02.133Z,4.20
2017-12-19T06:24:03.421Z,4.20
2017-12-19T06:27:04.720Z,4.20
2017-12-19T06:30:06.787Z,4.30
2017-12-19T06:33:08.805Z,4.30
2017-12-19T06:36:10.105Z,4.30
2017-12-19T06:39:11.382Z,4.30
2017-12-19T06:42:19.738Z,4.30
2017-12-19T06:45:21.048Z,4.30
2017-12-19T06:48:22.279Z,4.20
2017-12-19T06:51:23.568Z,4.30
2017-12-19T06:54:24.833Z,4.30
2017-12-19T06:57:26.131Z,4.30
2017-12-19T07:00:27.408Z,4.30
2017-12-19T07:03:28.685Z,4.30
2017-12-19T07:06:29.981Z,4.30
2017-12-19T07:09:31.302Z,4.30
2017-12-19T07:12:32.562Z,4.30
2017-12-19T07:15:33.849Z,4.30
2017-12-19T07:18:35.120Z,4.30
2017-12-19T07:21:36.405Z,4.30
2017-12-19T07:24:37.682Z,4.40
2017-12-19T07:27:38.959Z,4.30
2017-12-19T07:30:40.272Z,4.40
2017-12-19T07:33:41.577Z,4.50
2017-12-19T07:36:43.668Z,4.50
2017-12-19T07:39:44.941Z,4.50
2017-12-19T07:42:46.352Z,4.50
2017-12-19T07:45:48.371Z,4.50
2017-12-19T07:48:49.646Z,4.50
2017-12-19T07:51:50.921Z,4.40
2017-12-19T07:54:52.974Z,4.50
2017-12-19T07:57:54.994Z,4.30
2017-12-19T08:00:56.241Z,4.40
2017-12-19T08:03:57.540Z,4.30
2017-12-19T08:06:59.564Z,4.40
2017-12-19T08:10:00.853Z,4.30
2017-12-19T08:13:02.871Z,4.40
2017-12-19T08:16:04.153Z,4.40
2017-12-19T08:19:05.429Z,4.40
2017-12-19T08:22:07.420Z,4.50
2017-12-19T08:25:08.724Z,4.50
2017-12-19T08:28:11.823Z,4.50
2017-12-19T08:31:14.604Z,4.40
2017-12-19T08:34:17.768Z,4.40
2017-12-19T08:37:20.349Z,4.70
2017-12-19T08:40:22.393Z,4.60
2017-12-19T08:43:23.651Z,4.60
2017-12-19T08:46:24.970Z,4.90
2017-12-19T08:49:26.209Z,4.70
2017-12-19T08:52:27.473Z,4.60
2017-12-19T08:55:28.725Z,4.50
2017-12-19T08:58:30.009Z,4.60
2017-12-19T09:01:31.264Z,5.10
2017-12-19T09:04:32.518Z,8.80
2017-12-19T09:07:33.797Z,9.70
2017-12-19T09:10:35.048Z,9.60
2017-12-19T09:13:37.177Z,7.70
2017-12-19T09:16:38.497Z,6.60
2017-12-19T09:19:39.775Z,5.90
2017-12-19T09:22:41.012Z,5.60
2017-12-19T09:25:42.277Z,5.40
2017-12-19T09:28:43.541Z,5.30
2017-12-19T09:31:45.537Z,5.10
2017-12-19T09:34:46.811Z,5.10
2017-12-19T09:37:48.064Z,5.00
2017-12-19T09:40:50.085Z,5.20
2017-12-19T09:43:51.324Z,5.10
2017-12-19T09:46:52.582Z,5.30
2017-12-19T09:49:53.872Z,5.20
2017-12-19T09:52:55.124Z,5.00
2017-12-19T09:55:56.389Z,5.00
2017-12-19T09:58:57.639Z,5.00
2017-12-19T10:01:58.895Z,5.00
2017-12-19T10:05:00.893Z,5.00
2017-12-19T10:08:02.168Z,5.00
2017-12-19T10:11:03.430Z,5.00
2017-12-19T10:14:04.679Z,5.10
2017-12-19T10:17:05.933Z,5.10
2017-12-19T10:20:07.210Z,5.10
2017-12-19T10:23:09.275Z,5.10
2017-12-19T10:26:11.269Z,5.20
2017-12-19T10:29:12.576Z,5.10
2017-12-19T10:32:13.865Z,5.20
2017-12-19T10:35:15.157Z,5.10
2017-12-19T10:38:16.437Z,5.10
2017-12-19T10:41:18.422Z,5.20
2017-12-19T10:44:19.657Z,5.20
2017-12-19T10:47:20.885Z,5.20
2017-12-19T10:50:22.900Z,5.40
2017-12-19T10:53:24.125Z,5.30
2017-12-19T10:56:25.378Z,5.40
2017-12-19T10:59:26.640Z,5.30
2017-12-19T11:02:27.865Z,5.30
2017-12-19T11:05:29.133Z,5.30
2017-12-19T11:08:30.376Z,5.30
2017-12-19T11:11:31.637Z,5.20
2017-12-19T11:14:32.905Z,5.30
2017-12-19T11:17:34.166Z,5.30
2017-12-19T11:20:35.441Z,5.30
2017-12-19T11:23:37.461Z,5.30
2017-12-19T11:26:38.772Z,5.30
2017-12-19T11:29:40.077Z,5.30
2017-12-19T11:32:41.388Z,5.40
2017-12-19T11:35:42.677Z,5.40
2017-12-19T11:38:43.973Z,5.50
2017-12-19T11:41:45.218Z,5.50
2017-12-19T11:44:46.525Z,5.40
2017-12-19T11:47:47.851Z,5.40
2017-12-19T11:50:49.133Z,5.50
2017-12-19T11:53:50.412Z,5.50
2017-12-19T11:56:51.712Z,5.60
2017-12-19T11:59:53.036Z,5.60
2017-12-19T12:02:54.304Z,5.60
2017-12-19T12:06:02.397Z,5.60
2017-12-19T12:09:03.691Z,5.60
2017-12-19T12:12:05.717Z,5.50
2017-12-19T12:15:07.032Z,5.60
2017-12-19T12:18:08.320Z,5.60
2017-12-19T12:21:09.584Z,5.60
2017-12-19T12:24:10.821Z,5.60
2017-12-19T12:27:12.133Z,5.60
2017-12-19T12:30:13.416Z,5.60
2017-12-19T12:33:14.702Z,5.50
2017-12-19T12:36:16.737Z,5.60
2017-12-19T12:39:18.038Z,5.60
2017-12-19T12:42:19.318Z,5.60
2017-12-19T12:45:20.608Z,5.60
2017-12-19T12:48:22.612Z,5.60
2017-12-19T12:51:23.863Z,5.60
2017-12-19T12:54:25.145Z,5.60
2017-12-19T12:57:26.441Z,5.60
2017-12-19T13:00:27.706Z,5.60
2017-12-19T13:03:29.005Z,5.70
2017-12-19T13:06:30.249Z,5.70
2017-12-19T13:09:31.542Z,5.70
2017-12-19T13:12:32.801Z,5.80
2017-12-19T13:15:34.088Z,5.70
2017-12-19T13:18:35.389Z,5.80
2017-12-19T13:21:36.621Z,5.70
2017-12-19T13:24:37.870Z,5.80
2017-12-19T13:27:39.110Z,5.80
2017-12-19T13:30:41.105Z,5.90
2017-12-19T13:33:42.353Z,5.80
2017-12-19T13:36:43.647Z,5.90
2017-12-19T13:39:44.958Z,5.90
2017-12-19T13:42:46.194Z,5.90
2017-12-19T13:45:47.460Z,5.90
2017-12-19T13:48:48.694Z,5.90
2017-12-19T13:51:49.960Z,5.90
2017-12-19T13:54:51.225Z,5.80
2017-12-19T13:57:52.500Z,5.90
2017-12-19T14:00:54.506Z,6.00
2017-12-19T14:03:55.750Z,6.00
2017-12-19T14:06:57.026Z,5.90
2017-12-19T14:09:58.254Z,5.90
2017-12-19T14:12:59.527Z,5.90
2017-12-19T14:16:01.281Z,5.90
2017-12-19T14:19:02.557Z,6.00
2017-12-19T14:22:04.593Z,6.00
2017-12-19T14:25:06.171Z,6.00
2017-12-19T14:28:08.244Z,6.00
2017-12-19T14:31:10.694Z,6.00
2017-12-19T14:34:12.425Z,6.00
2017-12-19T14:37:13.750Z,6.00
2017-12-19T14:40:15.757Z,6.00
2017-12-19T14:43:17.040Z,6.00
2017-12-19T14:46:18.345Z,6.00
2017-12-19T14:49:19.624Z,6.00
2017-12-19T14:52:20.892Z,6.00
2017-12-19T14:55:22.204Z,6.00
2017-12-19T14:58:23.430Z,5.90
2017-12-19T15:01:24.680Z,5.90
2017-12-19T15:04:26.014Z,5.90
2017-12-19T15:07:34.348Z,5.90
2017-12-19T15:10:35.635Z,6.00
2017-12-19T15:13:37.512Z,5.90
2017-12-19T15:16:38.765Z,5.90
2017-12-19T15:19:40.860Z,5.90
2017-12-19T15:22:42.072Z,5.90
2017-12-19T15:25:43.365Z,5.90
2017-12-19T15:28:44.645Z,5.90
2017-12-19T15:31:45.928Z,5.90
2017-12-19T15:34:50.147Z,5.90
2017-12-19T15:37:52.197Z,6.20
2017-12-19T15:40:53.443Z,6.20
2017-12-19T15:43:54.698Z,6.10
2017-12-19T15:46:55.996Z,6.10
2017-12-19T15:49:57.249Z,6.00
2017-12-19T15:52:58.490Z,6.00
2017-12-19T15:55:59.771Z,6.00
2017-12-19T15:59:01.000Z,6.00
2017-12-19T16:02:02.270Z,6.10
2017-12-19T16:05:03.562Z,6.00
2017-12-19T16:08:04.833Z,6.00
2017-12-19T16:11:06.134Z,6.00
2017-12-19T16:14:07.403Z,6.00
2017-12-19T16:17:09.394Z,6.00
2017-12-19T16:20:11.045Z,5.90
2017-12-19T16:23:12.335Z,6.00
2017-12-19T16:26:13.588Z,5.90
2017-12-19T16:29:14.848Z,6.00
2017-12-19T16:32:16.853Z,6.00
2017-12-19T16:35:18.148Z,6.10
2017-12-19T16:38:19.416Z,6.00
2017-12-19T16:41:21.416Z,6.10
2017-12-19T16:44:22.667Z,6.10
2017-12-19T16:47:23.976Z,6.00
2017-12-19T16:50:25.954Z,6.00
2017-12-19T16:53:27.966Z,6.00
2017-12-19T16:56:29.234Z,6.00
2017-12-19T16:59:37.478Z,6.00
2017-12-19T17:02:39.460Z,5.90
2017-12-19T17:05:40.701Z,5.90
2017-12-19T17:08:41.941Z,5.90
2017-12-19T17:11:43.928Z,6.00
2017-12-19T17:14:45.220Z,6.00
2017-12-19T17:17:46.490Z,6.00
2017-12-19T17:20:48.513Z,6.00
2017-12-19T17:23:49.734Z,6.00
2017-12-19T17:26:51.048Z,6.00
2017-12-19T17:29:52.256Z,6.00
2017-12-19T17:32:53.568Z,5.90
2017-12-19T17:35:54.832Z,5.90
2017-12-19T17:38:56.298Z,5.80
2017-12-19T17:41:57.568Z,5.80
2017-12-19T17:44:59.649Z,5.90
2017-12-19T17:48:01.676Z,5.80
2017-12-19T17:51:03.336Z,5.80
2017-12-19T17:54:04.610Z,5.80
2017-12-19T17:57:05.861Z,5.70
2017-12-19T18:00:07.109Z,5.80
2017-12-19T18:03:08.624Z,5.80
2017-12-19T18:06:09.920Z,5.70
2017-12-19T18:09:11.380Z,5.80
2017-12-19T18:12:12.614Z,5.70
2017-12-19T18:15:13.892Z,5.80
2017-12-19T18:18:15.142Z,5.80
2017-12-19T18:21:16.398Z,5.70
2017-12-19T18:24:17.640Z,5.70
2017-12-19T18:27:19.634Z,5.80
2017-12-19T18:30:20.899Z,5.70
2017-12-19T18:33:22.247Z,5.80
2017-12-19T18:36:23.513Z,5.70
2017-12-19T18:39:24.740Z,5.70
2017-12-19T18:42:26.022Z,5.70
2017-12-19T18:45:27.260Z,5.70
2017-12-19T18:48:28.573Z,5.70
2017-12-19T18:51:29.859Z,5.70
2017-12-19T18:54:31.146Z,5.80
2017-12-19T18:57:32.428Z,5.80
2017-12-19T19:00:33.724Z,5.70
2017-12-19T19:03:36.354Z,5.80
2017-12-19T19:06:37.617Z,5.80
2017-12-19T19:09:38.919Z,5.70
2017-12-19T19:12:41.364Z,5.70
2017-12-19T19:15:44.079Z,5.70
2017-12-19T19:18:46.310Z,5.60
2017-12-19T19:21:47.592Z,5.60
2017-12-19T19:24:50.104Z,5.70
2017-12-19T19:27:51.550Z,5.70
2017-12-19T19:30:53.046Z,5.70
2017-12-19T19:33:55.614Z,5.60
2017-12-19T19:36:56.967Z,5.70
2017-12-19T19:39:58.220Z,5.60
2017-12-19T19:42:59.548Z,5.70
2017-12-19T19:46:01.980Z,5.70
2017-12-19T19:49:04.191Z,5.60
2017-12-19T19:52:05.809Z,5.60
2017-12-19T19:55:07.347Z,5.70
2017-12-19T19:58:08.970Z,5.70
2017-12-19T20:01:10.989Z,5.70
2017-12-19T20:04:12.890Z,5.60
2017-12-19T20:07:14.719Z,5.70
2017-12-19T20:10:16.030Z,5.60
2017-12-19T20:13:17.382Z,5.70
2017-12-19T20:16:20.258Z,5.50
2017-12-19T20:19:21.914Z,5.50
2017-12-19T20:22:23.297Z,5.60
2017-12-19T20:25:25.988Z,5.60
2017-12-19T20:28:29.699Z,5.60
2017-12-19T20:31:30.996Z,5.50
2017-12-19T20:34:32.283Z,5.60
2017-12-19T20:37:35.420Z,5.60
2017-12-19T20:40:36.776Z,5.60
2017-12-19T20:43:39.965Z,5.50
2017-12-19T20:46:41.837Z,5.50
2017-12-19T20:49:45.691Z,5.50
2017-12-19T20:52:47.508Z,5.50
2017-12-19T20:55:50.322Z,5.50
2017-12-19T20:58:52.087Z,5.50
2017-12-19T21:01:54.245Z,5.50
2017-12-19T21:04:56.528Z,5.60
2017-12-19T21:07:59.525Z,5.50
2017-12-19T21:11:01.573Z,5.60
2017-12-19T21:14:03.072Z,5.60
2017-12-19T21:17:04.361Z,5.60
2017-12-19T21:20:05.790Z,5.60
2017-12-19T21:23:07.141Z,5.60
2017-12-19T21:26:08.496Z,5.50
2017-12-19T21:29:11.248Z,5.70
2017-12-19T21:32:13.182Z,5.60
2017-12-19T21:35:15.176Z,5.60
2017-12-19T21:38:17.080Z,5.60
2017-12-19T21:41:20.129Z,5.50
2017-12-19T21:44:21.885Z,5.50
2017-12-19T21:47:23.156Z,5.50
2017-12-19T21:50:26.295Z,5.60
2017-12-19T21:53:28.805Z,5.60
2017-12-19T21:56:30.105Z,5.50
2017-12-19T21:59:31.331Z,5.60
2017-12-19T22:02:33.333Z,5.50
2017-12-19T22:05:34.597Z,5.50
2017-12-19T22:08:36.591Z,5.50
2017-12-19T22:11:37.877Z,5.50
2017-12-19T22:14:39.173Z,5.50
2017-12-19T22:17:40.409Z,5.50
2017-12-19T22:20:41.686Z,5.50
2017-12-19T22:23:42.948Z,5.50
2017-12-19T22:26:44.184Z,5.50
2017-12-19T22:29:45.480Z,5.40
2017-12-19T22:32:46.730Z,5.50
2017-12-19T22:35:48.131Z,5.50
2017-12-19T22:38:50.106Z,5.60
2017-12-19T22:41:51.361Z,5.60
2017-12-19T22:44:52.585Z,5.60
2017-12-19T22:47:53.892Z,5.60
2017-12-19T22:50:55.892Z,5.50
2017-12-19T22:53:57.137Z,5.50
2017-12-19T22:56:58.404Z,5.50
2017-12-19T22:59:59.644Z,5.50
2017-12-19T23:03:01.059Z,5.50
2017-12-19T23:06:02.303Z,5.60
2017-12-19T23:09:04.806Z,5.50
2017-12-19T23:12:06.030Z,5.50
2017-12-19T23:15:08.061Z,5.50
2017-12-19T23:18:09.341Z,5.40
2017-12-19T23:21:11.322Z,5.50
2017-12-19T23:24:12.616Z,5.50
2017-12-19T23:27:13.852Z,5.60
2017-12-19T23:30:15.126Z,5.60
2017-12-19T23:33:16.388Z,5.60
2017-12-19T23:36:17.691Z,5.60
2017-12-19T23:39:18.931Z,5.60
2017-12-19T23:42:27.048Z,5.50
2017-12-19T23:45:28.344Z,5.50
2017-12-19T23:48:29.593Z,5.50
2017-12-19T23:51:30.861Z,5.50
2017-12-19T23:54:32.871Z,5.50
2017-12-19T23:57:34.129Z,5.50
